createdAt,value
2019-04-22T00:01:17.143Z,23.20
2019-04-22T00:03:55.166Z,23.41
2019-04-22T00:06:52.630Z,23.63
2019-04-22T00:09:34.112Z,23.73
2019-04-22T00:12:06.387Z,23.28
2019-04-22T00:14:35.162Z,22.99
2019-04-22T00:17:23.317Z,22.82
2019-04-22T00:19:57.626Z,22.73
2019-04-22T00:22:29.149Z,22.60
2019-04-22T00:25:07.960Z,22.55
2019-04-22T00:30:21.961Z,23.51
2019-04-22T00:33:18.574Z,23.58
2019-04-22T00:35:48.118Z,23.10
2019-04-22T00:38:33.850Z,22.83
2019-04-22T00:41:08.544Z,22.72
2019-04-22T00:43:41.131Z,22.60
2019-04-22T00:46:17.894Z,22.90
2019-04-22T00:49:28.724Z,23.35
2019-04-22T00:51:31.569Z,23.61
2019-04-22T00:54:10.297Z,24.05
2019-04-22T00:56:40.956Z,24.08
2019-04-22T00:59:17.221Z,24.02
2019-04-22T01:01:52.578Z,23.98
2019-04-22T01:04:35.216Z,23.98
2019-04-22T01:07:09.260Z,24.01
2019-04-22T01:09:44.967Z,24.03
2019-04-22T01:12:24.735Z,24.05
2019-04-22T01:14:55.600Z,24.06
2019-04-22T01:17:35.896Z,24.23
2019-04-22T01:20:17.457Z,24.49
2019-04-22T01:22:47.272Z,24.37
2019-04-22T01:25:20.604Z,24.29
2019-04-22T01:27:48.619Z,24.22
2019-04-22T01:30:24.398Z,24.22
2019-04-22T01:32:51.051Z,24.26
2019-04-22T01:35:36.090Z,24.30
2019-04-22T01:38:13.671Z,24.37
2019-04-22T01:41:04.614Z,24.65
2019-04-22T01:43:40.897Z,24.68
2019-04-22T01:46:23.494Z,24.52
2019-04-22T01:48:54.275Z,24.41
2019-04-22T01:51:35.592Z,24.33
2019-04-22T01:54:05.236Z,24.29
2019-04-22T01:56:40.973Z,24.29
2019-04-22T01:59:12.872Z,24.29
2019-04-22T02:04:31.925Z,24.31
2019-04-22T02:09:45.621Z,24.31
2019-04-22T02:14:50.636Z,24.31
2019-04-22T02:17:31.668Z,24.32
2019-04-22T02:20:05.142Z,23.91
2019-04-22T02:23:43.100Z,23.42
2019-04-22T02:28:39.919Z,23.41
2019-04-22T02:31:25.879Z,23.47
2019-04-22T02:36:43.119Z,23.12
2019-04-22T02:44:26.321Z,23.20
2019-04-22T02:49:47.422Z,23.28
2019-04-22T02:52:14.557Z,23.42
2019-04-22T02:54:49.408Z,23.30
2019-04-22T02:57:30.086Z,23.07
2019-04-22T03:02:41.376Z,23.06
2019-04-22T03:07:55.895Z,23.19
2019-04-22T03:10:29.458Z,23.20
2019-04-22T03:13:01.005Z,23.33
2019-04-22T03:18:09.167Z,23.18
2019-04-22T03:20:50.046Z,23.05
2019-04-22T03:23:45.612Z,23.39
2019-04-22T03:28:37.164Z,24.05
2019-04-22T03:32:32.658Z,24.17
2019-04-22T03:35:20.159Z,24.14
2019-04-22T03:37:35.066Z,24.71
2019-04-22T03:42:27.434Z,25.13
2019-04-22T03:45:10.282Z,25.27
2019-04-22T03:53:01.438Z,25.53
2019-04-22T03:55:32.678Z,25.55
2019-04-22T03:58:01.251Z,25.25
2019-04-22T04:00:43.094Z,24.97
2019-04-22T04:03:11.655Z,24.87
2019-04-22T04:05:57.592Z,24.76
2019-04-22T04:13:39.576Z,24.59
2019-04-22T04:16:19.504Z,24.55
2019-04-22T04:24:24.115Z,24.48
2019-04-22T04:34:54.037Z,25.23
2019-04-22T04:37:22.933Z,25.43
2019-04-22T04:45:11.034Z,25.27
2019-04-22T04:55:24.013Z,25.69
2019-04-22T04:58:03.738Z,25.79
2019-04-22T05:03:10.546Z,26.14
2019-04-22T05:05:54.649Z,26.26
2019-04-22T05:08:30.648Z,26.33
2019-04-22T05:11:01.066Z,26.40
2019-04-22T05:13:39.666Z,26.44
2019-04-22T05:18:47.195Z,26.61
2019-04-22T05:21:17.999Z,26.65
2019-04-22T05:23:58.507Z,26.71
2019-04-22T05:26:32.799Z,26.75
2019-04-22T05:29:05.583Z,26.78
2019-04-22T05:31:37.243Z,26.81
2019-04-22T05:36:52.854Z,26.90
2019-04-22T05:39:33.952Z,26.94
2019-04-22T05:42:10.272Z,26.91
2019-04-22T05:44:48.030Z,26.86
2019-04-22T05:47:15.238Z,26.81
2019-04-22T05:49:49.340Z,26.78
2019-04-22T05:52:25.003Z,26.78
2019-04-22T05:55:10.471Z,26.78
2019-04-22T05:57:38.909Z,26.78
2019-04-22T06:00:25.591Z,26.78
2019-04-22T06:02:56.957Z,26.84
2019-04-22T06:05:32.038Z,26.84
2019-04-22T06:08:08.250Z,26.84
2019-04-22T06:10:50.407Z,26.84
2019-04-22T06:13:18.229Z,26.85
2019-04-22T06:15:53.126Z,26.87
2019-04-22T06:18:33.485Z,26.89
2019-04-22T06:21:11.274Z,26.89
2019-04-22T06:23:46.694Z,26.91
2019-04-22T06:29:06.679Z,26.92
2019-04-22T06:31:49.920Z,26.94
2019-04-22T06:36:54.204Z,26.99
2019-04-22T06:39:29.081Z,27.03
2019-04-22T06:42:01.032Z,27.01
2019-04-22T06:44:36.295Z,27.08
2019-04-22T06:47:25.242Z,27.21
2019-04-22T06:49:53.045Z,27.23
2019-04-22T06:52:22.657Z,27.23
2019-04-22T06:55:24.814Z,27.21
2019-04-22T06:57:36.374Z,27.27
2019-04-22T07:00:18.566Z,27.32
2019-04-22T07:05:27.534Z,27.24
2019-04-22T07:08:18.282Z,27.25
2019-04-22T07:10:47.812Z,27.27
2019-04-22T07:13:23.634Z,27.26
2019-04-22T07:16:00.428Z,27.27
2019-04-22T07:18:36.088Z,27.28
2019-04-22T07:21:10.422Z,27.34
2019-04-22T07:26:18.373Z,27.45
2019-04-22T07:28:56.527Z,27.48
2019-04-22T07:31:50.898Z,27.54
2019-04-22T07:34:17.856Z,27.52
2019-04-22T07:39:25.586Z,27.64
2019-04-22T07:41:58.616Z,27.70
2019-04-22T07:44:33.909Z,27.66
2019-04-22T07:47:13.785Z,27.63
2019-04-22T07:49:47.357Z,27.66
2019-04-22T07:52:24.562Z,27.78
2019-04-22T07:54:56.962Z,27.88
2019-04-22T07:57:32.481Z,27.92
2019-04-22T08:00:09.301Z,27.89
2019-04-22T08:02:53.635Z,27.89
2019-04-22T08:05:20.681Z,27.85
2019-04-22T08:08:05.279Z,27.80
2019-04-22T08:10:38.057Z,27.73
2019-04-22T08:13:11.888Z,27.69
2019-04-22T08:15:48.606Z,27.66
2019-04-22T08:21:02.756Z,27.63
2019-04-22T08:23:36.813Z,27.61
2019-04-22T08:26:13.464Z,27.85
2019-04-22T08:31:29.993Z,28.01
2019-04-22T08:34:05.002Z,27.97
2019-04-22T08:36:41.045Z,27.90
2019-04-22T08:39:14.116Z,27.85
2019-04-22T08:41:39.912Z,27.82
2019-04-22T08:44:49.635Z,27.77
2019-04-22T08:47:17.333Z,27.75
2019-04-22T08:49:46.501Z,27.74
2019-04-22T08:52:16.520Z,27.73
2019-04-22T08:54:53.663Z,27.72
2019-04-22T08:57:43.434Z,27.71
2019-04-22T09:00:02.811Z,27.70
2019-04-22T09:02:43.181Z,27.69
2019-04-22T09:05:22.547Z,27.71
2019-04-22T09:07:59.791Z,27.69
2019-04-22T09:10:36.255Z,27.70
2019-04-22T09:13:13.953Z,27.71
2019-04-22T09:15:49.100Z,27.71
2019-04-22T09:18:14.548Z,27.71
2019-04-22T09:20:59.906Z,27.72
2019-04-22T09:23:30.708Z,27.72
2019-04-22T09:26:05.092Z,27.72
2019-04-22T09:28:44.743Z,27.73
2019-04-22T09:31:18.987Z,27.74
2019-04-22T09:33:50.355Z,27.74
2019-04-22T09:36:33.991Z,27.75
2019-04-22T09:39:02.942Z,27.76
2019-04-22T09:41:41.290Z,27.76
2019-04-22T09:44:14.877Z,27.76
2019-04-22T09:46:53.728Z,27.77
2019-04-22T09:52:02.950Z,27.79
2019-04-22T09:54:49.691Z,27.79
2019-04-22T09:57:20.155Z,27.81
2019-04-22T10:00:00.595Z,27.81
2019-04-22T10:02:39.536Z,27.83
2019-04-22T10:05:08.667Z,27.82
2019-04-22T10:07:39.179Z,27.84
2019-04-22T10:13:12.800Z,27.85
2019-04-22T10:15:28.937Z,27.88
2019-04-22T10:18:02.941Z,27.88
2019-04-22T10:20:47.659Z,27.89
2019-04-22T10:23:20.028Z,27.89
2019-04-22T10:25:57.445Z,27.90
2019-04-22T10:28:36.849Z,27.91
2019-04-22T10:31:12.273Z,27.92
2019-04-22T10:33:36.284Z,27.92
2019-04-22T10:35:57.598Z,27.93
2019-04-22T10:38:32.577Z,27.94
2019-04-22T10:41:08.262Z,27.95
2019-04-22T10:43:43.328Z,27.96
2019-04-22T10:46:18.070Z,27.97
2019-04-22T10:48:52.774Z,27.98
2019-04-22T10:51:30.742Z,27.99
2019-04-22T10:54:05.310Z,27.99
2019-04-22T10:56:40.765Z,28.58
2019-04-22T10:59:16.504Z,28.63
2019-04-22T11:01:50.749Z,28.67
2019-04-22T11:04:26.114Z,28.74
2019-04-22T11:07:03.912Z,28.77
2019-04-22T11:09:50.379Z,28.78
2019-04-22T11:12:17.658Z,28.81
2019-04-22T11:14:49.770Z,28.82
2019-04-22T11:17:24.042Z,28.84
2019-04-22T11:19:59.689Z,28.86
2019-04-22T11:22:36.905Z,28.89
2019-04-22T11:25:11.834Z,28.92
2019-04-22T11:27:47.191Z,28.98
2019-04-22T11:30:25.931Z,28.98
2019-04-22T11:33:00.438Z,28.97
2019-04-22T11:35:35.152Z,28.97
2019-04-22T11:38:10.775Z,29.00
2019-04-22T11:40:49.772Z,29.05
2019-04-22T11:43:21.950Z,29.05
2019-04-22T11:45:57.532Z,29.05
2019-04-22T11:48:31.899Z,29.05
2019-04-22T11:51:06.290Z,29.09
2019-04-22T11:53:40.977Z,29.09
2019-04-22T11:56:16.641Z,29.13
2019-04-22T11:58:51.250Z,29.14
2019-04-22T12:01:26.675Z,29.17
2019-04-22T12:04:02.147Z,29.20
2019-04-22T12:06:37.875Z,29.20
2019-04-22T12:09:15.451Z,29.21
2019-04-22T12:11:49.610Z,29.26
2019-04-22T12:14:24.053Z,29.26
2019-04-22T12:16:59.489Z,29.27
2019-04-22T12:19:35.252Z,29.30
2019-04-22T12:22:11.071Z,29.30
2019-04-22T12:24:46.112Z,29.33
2019-04-22T12:27:22.097Z,29.34
2019-04-22T12:29:56.755Z,29.36
2019-04-22T12:32:31.637Z,29.37
2019-04-22T12:35:07.363Z,29.35
2019-04-22T12:37:51.015Z,29.40
2019-04-22T12:40:30.140Z,29.44
2019-04-22T12:42:55.415Z,29.44
2019-04-22T12:45:30.136Z,29.48
2019-04-22T12:48:04.538Z,29.47
2019-04-22T12:50:43.449Z,29.47
2019-04-22T12:53:18.802Z,29.51
2019-04-22T12:55:54.912Z,29.50
2019-04-22T12:58:27.711Z,29.50
2019-04-22T13:01:03.278Z,29.57
2019-04-22T13:03:38.304Z,29.58
2019-04-22T13:06:14.066Z,29.61
2019-04-22T13:08:49.689Z,29.61
2019-04-22T13:11:30.463Z,29.67
2019-04-22T13:14:00.991Z,29.63
2019-04-22T13:16:35.945Z,29.67
2019-04-22T13:19:13.146Z,29.67
2019-04-22T13:21:48.948Z,29.66
2019-04-22T13:24:23.761Z,29.77
2019-04-22T13:26:59.074Z,29.85
2019-04-22T13:29:34.946Z,29.88
2019-04-22T13:32:10.822Z,29.87
2019-04-22T13:34:49.788Z,29.79
2019-04-22T13:37:23.119Z,29.71
2019-04-22T13:40:00.990Z,29.66
2019-04-22T13:42:37.215Z,29.62
2019-04-22T13:45:13.898Z,29.86
2019-04-22T13:48:08.695Z,28.70
2019-04-22T13:51:01.362Z,28.70
2019-04-22T13:56:05.580Z,28.09
2019-04-22T13:58:31.344Z,27.85
2019-04-22T14:00:52.316Z,27.68
2019-04-22T14:03:44.817Z,27.56
2019-04-22T14:06:20.575Z,27.47
2019-04-22T14:08:55.664Z,27.37
2019-04-22T14:11:36.716Z,27.29
2019-04-22T14:14:06.975Z,27.17
2019-04-22T14:16:42.467Z,27.04
2019-04-22T14:19:18.397Z,26.90
2019-04-22T14:21:53.804Z,26.83
2019-04-22T14:24:28.306Z,26.76
2019-04-22T14:27:19.655Z,26.65
2019-04-22T14:29:39.773Z,26.61
2019-04-22T14:34:51.151Z,26.49
2019-04-22T14:37:25.600Z,26.41
2019-04-22T14:40:00.670Z,26.35
2019-04-22T14:42:56.372Z,26.28
2019-04-22T14:44:42.434Z,26.52
2019-04-22T14:45:42.572Z,26.24
2019-04-22T14:48:10.981Z,26.19
2019-04-22T14:50:46.938Z,26.14
2019-04-22T14:53:21.044Z,26.09
2019-04-22T14:55:38.206Z,26.03
2019-04-22T14:58:13.030Z,25.93
2019-04-22T15:00:49.301Z,25.88
2019-04-22T15:03:23.903Z,25.86
2019-04-22T15:05:59.900Z,25.89
2019-04-22T15:08:35.149Z,25.94
2019-04-22T15:11:10.970Z,25.94
2019-04-22T15:13:45.381Z,25.87
2019-04-22T15:16:42.314Z,25.85
2019-04-22T15:19:33.975Z,25.90
2019-04-22T15:22:08.493Z,25.89
2019-04-22T15:24:43.094Z,25.90
2019-04-22T15:27:18.432Z,25.93
2019-04-22T15:29:53.726Z,25.81
2019-04-22T15:32:29.539Z,25.68
2019-04-22T15:35:04.975Z,25.66
2019-04-22T15:37:39.507Z,25.62
2019-04-22T15:40:13.904Z,25.63
2019-04-22T15:42:48.911Z,25.57
2019-04-22T15:45:24.293Z,25.56
2019-04-22T15:47:59.873Z,25.55
2019-04-22T15:50:35.039Z,25.55
2019-04-22T15:53:09.852Z,25.59
2019-04-22T15:55:44.927Z,25.58
2019-04-22T15:58:19.783Z,25.60
2019-04-22T16:01:05.927Z,25.58
2019-04-22T16:03:30.456Z,25.59
2019-04-22T16:06:06.080Z,25.54
2019-04-22T16:08:41.124Z,25.54
2019-04-22T16:11:15.904Z,25.58
2019-04-22T16:13:50.622Z,25.54
2019-04-22T16:16:25.018Z,25.52
2019-04-22T16:19:00.569Z,25.49
2019-04-22T16:21:45.184Z,25.45
2019-04-22T16:24:34.039Z,25.42
2019-04-22T16:27:14.197Z,25.44
2019-04-22T16:29:49.633Z,25.40
2019-04-22T16:32:25.414Z,25.45
2019-04-22T16:35:00.899Z,25.50
2019-04-22T16:37:36.869Z,25.51
2019-04-22T16:40:12.569Z,25.53
2019-04-22T16:42:54.545Z,25.54
2019-04-22T16:45:23.070Z,25.55
2019-04-22T16:47:57.961Z,25.59
2019-04-22T16:50:32.832Z,25.62
2019-04-22T16:53:08.316Z,25.66
2019-04-22T16:55:44.573Z,25.67
2019-04-22T16:58:19.159Z,25.67
2019-04-22T17:00:54.654Z,25.63
2019-04-22T17:03:56.794Z,25.58
2019-04-22T17:06:35.314Z,25.60
2019-04-22T17:09:14.206Z,25.56
2019-04-22T17:11:48.025Z,25.53
2019-04-22T17:14:29.086Z,25.53
2019-04-22T17:16:58.069Z,25.45
2019-04-22T17:19:33.311Z,25.38
2019-04-22T17:22:07.969Z,25.30
2019-04-22T17:24:43.719Z,25.26
2019-04-22T17:27:18.356Z,25.22
2019-04-22T17:29:54.535Z,25.20
2019-04-22T17:32:29.077Z,25.17
2019-04-22T17:35:04.093Z,25.22
2019-04-22T17:37:39.636Z,25.16
2019-04-22T17:40:32.975Z,25.11
2019-04-22T17:43:26.551Z,25.07
2019-04-22T17:46:14.013Z,25.03
2019-04-22T17:49:10.811Z,25.04
2019-04-22T17:51:45.649Z,25.07
2019-04-22T17:54:21.411Z,25.13
2019-04-22T17:56:54.339Z,25.11
2019-04-22T17:59:32.856Z,25.10
2019-04-22T18:02:05.732Z,25.09
2019-04-22T18:04:29.035Z,25.09
2019-04-22T18:07:24.038Z,25.17
2019-04-22T18:10:23.320Z,25.16
2019-04-22T18:12:40.098Z,25.06
2019-04-22T18:15:09.979Z,25.02
2019-04-22T18:17:46.350Z,24.99
2019-04-22T18:20:17.500Z,24.92
2019-04-22T18:22:50.315Z,24.92
2019-04-22T18:25:29.550Z,24.91
2019-04-22T18:30:37.430Z,24.85
2019-04-22T18:33:24.264Z,24.85
2019-04-22T18:35:54.027Z,24.89
2019-04-22T18:41:09.019Z,24.92
2019-04-22T18:43:47.906Z,24.98
2019-04-22T18:46:21.305Z,24.98
2019-04-22T18:49:00.561Z,24.99
2019-04-22T18:51:42.614Z,24.98
2019-04-22T18:54:33.008Z,24.97
2019-04-22T18:57:07.971Z,24.95
2019-04-22T18:59:28.889Z,24.95
2019-04-22T19:26:55.810Z,24.87
2019-04-22T19:29:12.263Z,25.19
2019-04-22T19:31:52.736Z,25.04
2019-04-22T19:34:28.440Z,24.93
2019-04-22T19:37:02.101Z,24.94
2019-04-22T19:39:31.075Z,24.98
2019-04-22T19:42:16.681Z,25.03
2019-04-22T19:44:50.804Z,25.00
2019-04-22T19:47:30.339Z,25.04
2019-04-22T19:52:40.211Z,25.04
2019-04-22T19:55:21.380Z,25.27
2019-04-22T19:57:47.861Z,25.53
2019-04-22T20:00:32.548Z,25.66
2019-04-22T20:03:53.015Z,25.45
2019-04-22T20:06:33.651Z,25.34
2019-04-22T20:09:13.617Z,25.30
2019-04-22T20:11:44.912Z,25.27
2019-04-22T20:14:24.610Z,25.20
2019-04-22T20:16:54.716Z,25.17
2019-04-22T20:22:08.794Z,25.08
2019-04-22T20:24:34.011Z,25.20
2019-04-22T20:27:25.213Z,25.47
2019-04-22T20:29:58.146Z,25.64
2019-04-22T20:32:31.211Z,25.74
2019-04-22T20:35:15.212Z,25.40
2019-04-22T20:37:50.936Z,25.17
2019-04-22T20:40:25.338Z,25.04
2019-04-22T20:43:22.027Z,24.92
2019-04-22T20:45:39.979Z,24.79
2019-04-22T20:48:05.017Z,24.74
2019-04-22T20:50:48.183Z,24.69
2019-04-22T20:53:32.295Z,24.64
2019-04-22T20:56:00.564Z,24.63
2019-04-22T20:58:40.673Z,24.85
2019-04-22T21:01:05.170Z,25.00
2019-04-22T21:03:39.240Z,25.10
2019-04-22T21:06:23.287Z,25.22
2019-04-22T21:09:01.048Z,25.20
2019-04-22T21:11:34.547Z,24.91
2019-04-22T21:14:11.851Z,24.73
2019-04-22T21:16:53.253Z,24.64
2019-04-22T21:19:38.193Z,24.57
2019-04-22T21:22:03.260Z,24.56
2019-04-22T21:24:36.141Z,24.58
2019-04-22T21:27:18.278Z,24.63
2019-04-22T21:29:39.854Z,24.69
2019-04-22T21:32:25.229Z,24.77
2019-04-22T21:35:05.713Z,24.81
2019-04-22T21:37:43.130Z,24.86
2019-04-22T21:40:18.620Z,24.89
2019-04-22T21:42:58.241Z,24.89
2019-04-22T21:45:21.665Z,24.90
2019-04-22T21:48:15.503Z,24.90
2019-04-22T21:50:52.519Z,24.88
2019-04-22T21:53:22.763Z,24.89
2019-04-22T21:56:00.356Z,24.90
2019-04-22T21:58:56.014Z,24.83
2019-04-22T22:01:49.996Z,25.39
2019-04-22T22:04:17.466Z,25.92
2019-04-22T22:06:42.472Z,26.26
2019-04-22T22:09:31.257Z,26.43
2019-04-22T22:12:05.262Z,26.59
2019-04-22T22:14:40.105Z,26.70
2019-04-22T22:17:17.304Z,26.81
2019-04-22T22:19:54.416Z,26.90
2019-04-22T22:25:07.785Z,27.03
2019-04-22T22:27:41.669Z,26.86
2019-04-22T22:30:40.104Z,26.59
2019-04-22T22:33:01.356Z,26.12
2019-04-22T22:35:31.567Z,25.83
2019-04-22T22:38:10.829Z,25.62
2019-04-22T22:40:28.047Z,25.50
2019-04-22T22:43:05.423Z,25.38
2019-04-22T22:45:44.982Z,25.32
2019-04-22T22:48:38.728Z,25.26
2019-04-22T22:51:07.632Z,25.21
2019-04-22T22:53:51.296Z,25.18
2019-04-22T22:56:35.597Z,25.11
2019-04-22T22:59:00.264Z,25.06
2019-04-22T23:01:36.065Z,25.06
2019-04-22T23:04:16.264Z,25.02
2019-04-22T23:06:53.336Z,24.97
2019-04-22T23:09:22.993Z,24.96
2019-04-22T23:12:24.784Z,24.94
2019-04-22T23:14:38.295Z,24.94
2019-04-22T23:16:57.926Z,24.92
2019-04-22T23:19:26.160Z,24.91
2019-04-22T23:22:06.426Z,24.89
2019-04-22T23:25:00.209Z,24.86
2019-04-22T23:27:40.168Z,24.75
2019-04-22T23:30:23.953Z,24.77
2019-04-22T23:33:26.513Z,24.77
2019-04-22T23:35:57.567Z,24.77
2019-04-22T23:38:47.664Z,24.78
2019-04-22T23:41:48.985Z,24.78
2019-04-22T23:46:48.400Z,24.72
2019-04-22T23:49:25.103Z,24.69
2019-04-22T23:52:11.435Z,24.68
2019-04-22T23:54:51.742Z,24.66
2019-04-22T23:57:27.607Z,24.59
